Time;durP1;ratioP1;P1;durP2;ratioP2;P2;SDS_P1;SDS_P2;PMS_P1;PMS_P2;Temp;Humidity;BMP_temperature;BMP_pressure;BME280_temperature;BME280_humidity;BME280_pressure;Samples;Min_cycle;Max_cycle;Signal;HPM_P1;HPM_P2
2022/07/28 00:00:06;;;;;;;0.70;0.65;;;11.90;99.90;;;;;;6342786;22;20091;-86
2022/07/28 00:02:35;;;;;;;0.98;0.60;;;11.80;99.90;;;;;;6342341;22;20018;-86
2022/07/28 00:05:03;;;;;;;1.23;0.88;;;11.80;99.90;;;;;;6371076;22;20018;-86
2022/07/28 00:07:32;;;;;;;1.02;0.50;;;11.60;99.90;;;;;;6343220;22;20014;-86
2022/07/28 00:09:58;;;;;;;3.40;0.70;;;11.80;99.90;;;;;;6342761;22;20019;-86
2022/07/28 00:12:24;;;;;;;1.10;0.63;;;11.80;99.90;;;;;;6316494;22;20333;-86
2022/07/28 00:14:58;;;;;;;1.55;0.70;;;11.70;99.90;;;;;;6342938;22;20022;-86
2022/07/28 00:17:33;;;;;;;1.98;0.63;;;11.70;99.90;;;;;;6370268;22;20017;-86
2022/07/28 00:20:04;;;;;;;1.88;0.50;;;11.70;99.90;;;;;;6343007;22;20081;-86
2022/07/28 00:22:30;;;;;;;0.77;0.52;;;11.60;99.90;;;;;;6369874;22;20085;-86
2022/07/28 00:24:59;;;;;;;3.90;0.50;;;11.80;99.90;;;;;;6342449;22;20066;-85
2022/07/28 00:27:24;;;;;;;0.95;0.45;;;11.80;99.90;;;;;;6370575;22;20310;-86
2022/07/28 00:29:50;;;;;;;0.40;0.40;;;12.10;99.90;;;;;;6343038;22;20071;-86
2022/07/28 00:32:19;;;;;;;0.55;0.40;;;11.70;99.90;;;;;;6343110;22;20060;-86
2022/07/28 00:34:45;;;;;;;0.90;0.45;;;11.90;99.90;;;;;;6370930;22;20014;-85
2022/07/28 00:37:11;;;;;;;1.38;0.52;;;11.60;99.90;;;;;;6343043;22;20029;-86
2022/07/28 00:39:37;;;;;;;0.88;0.50;;;11.60;99.90;;;;;;6370784;22;20018;-85
2022/07/28 00:42:03;;;;;;;0.85;0.57;;;11.50;99.90;;;;;;6370603;22;20047;-85
2022/07/28 00:44:31;;;;;;;0.60;0.50;;;11.50;99.90;;;;;;6342940;22;20018;-85
2022/07/28 00:47:00;;;;;;;0.80;0.43;;;11.50;99.90;;;;;;6370827;22;20014;-86
2022/07/28 00:49:26;;;;;;;1.00;0.57;;;11.40;99.90;;;;;;6342845;22;20089;-85
2022/07/28 00:51:52;;;;;;;1.52;0.50;;;11.50;99.90;;;;;;6370568;22;20018;-85
2022/07/28 00:54:18;;;;;;;1.17;0.47;;;11.80;99.90;;;;;;6370622;22;20018;-85
2022/07/28 00:56:44;;;;;;;1.17;0.60;;;11.20;99.90;;;;;;6342496;22;20028;-85
2022/07/28 00:59:10;;;;;;;0.63;0.50;;;11.20;99.90;;;;;;6342316;22;20015;-85
2022/07/28 01:01:36;;;;;;;2.25;0.90;;;11.10;99.90;;;;;;6370532;22;20019;-85
2022/07/28 01:04:02;;;;;;;0.57;0.55;;;11.20;99.90;;;;;;6370552;22;20067;-85
2022/07/28 01:06:39;;;;;;;1.40;0.40;;;11.10;99.90;;;;;;6316629;22;20045;-85
2022/07/28 01:09:29;;;;;;;0.93;0.80;;;11.90;99.90;;;;;;6342437;22;20019;-86
2022/07/28 01:12:40;;;;;;;0.98;0.47;;;11.00;99.90;;;;;;6370525;22;20010;-85
2022/07/28 01:15:32;;;;;;;0.45;0.35;;;11.10;99.90;;;;;;6342253;22;20022;-85
2022/07/28 01:18:25;;;;;;;1.58;0.40;;;11.00;99.90;;;;;;6370410;22;20036;-86
2022/07/28 01:21:07;;;;;;;0.90;0.60;;;10.90;99.90;;;;;;6342638;22;20444;-85
2022/07/28 01:23:39;;;;;;;1.10;0.50;;;10.90;99.90;;;;;;6342419;22;20127;-86
2022/07/28 01:26:26;;;;;;;1.02;0.50;;;10.80;99.90;;;;;;6370241;22;20378;-86
2022/07/28 01:28:58;;;;;;;1.15;0.60;;;10.60;99.90;;;;;;6370526;22;20022;-85
2022/07/28 01:31:25;;;;;;;0.68;0.43;;;10.80;99.90;;;;;;6370385;22;20017;-86
2022/07/28 01:33:59;;;;;;;0.63;0.30;;;10.80;99.90;;;;;;6342530;22;20041;-86
2022/07/28 01:36:33;;;;;;;1.40;0.43;;;10.80;99.90;;;;;;6342160;22;20011;-85
2022/07/28 01:39:00;;;;;;;0.50;0.40;;;10.80;99.90;;;;;;6341653;22;20022;-86
2022/07/28 01:41:29;;;;;;;0.73;0.47;;;11.40;99.90;;;;;;6369935;22;20044;-85
2022/07/28 01:44:03;;;;;;;0.40;0.30;;;10.70;99.90;;;;;;6370018;22;20045;-85
2022/07/28 01:46:34;;;;;;;0.73;0.40;;;10.50;99.90;;;;;;6370279;22;20065;-86
2022/07/28 01:49:03;;;;;;;0.85;0.22;;;10.70;99.90;;;;;;6316039;22;20025;-86
2022/07/28 01:51:33;;;;;;;0.60;0.40;;;10.70;99.90;;;;;;6342363;22;20440;-86
2022/07/28 01:54:00;;;;;;;0.73;0.45;;;10.60;99.90;;;;;;6369522;22;20089;-86
2022/07/28 01:56:29;;;;;;;1.15;0.32;;;11.40;99.90;;;;;;6369913;22;20094;-85
2022/07/28 01:59:00;;;;;;;0.50;0.40;;;10.60;99.90;;;;;;6341491;22;20059;-86
2022/07/28 02:01:29;;;;;;;1.02;0.35;;;11.30;99.90;;;;;;6369630;22;20018;-86
2022/07/28 02:03:57;;;;;;;0.63;0.38;;;10.90;99.90;;;;;;6370076;22;20045;-85
2022/07/28 02:06:25;;;;;;;0.70;0.40;;;10.70;99.90;;;;;;6341600;22;20018;-85
2022/07/28 02:08:53;;;;;;;0.35;0.20;;;11.30;99.90;;;;;;6369906;22;20010;-86
2022/07/28 02:11:38;;;;;;;0.30;0.20;;;10.70;99.90;;;;;;6341607;22;20010;-85
2022/07/28 02:14:13;;;;;;;0.20;0.20;;;10.70;99.90;;;;;;6369640;22;20025;-85
2022/07/28 02:16:44;;;;;;;0.43;0.30;;;10.70;99.90;;;;;;6341982;22;20018;-85
2022/07/28 02:19:12;;;;;;;0.30;0.25;;;11.20;99.90;;;;;;6369716;22;20010;-85
2022/07/28 02:21:38;;;;;;;0.63;0.32;;;10.80;99.90;;;;;;6369426;22;20018;-85
2022/07/28 02:24:06;;;;;;;1.05;0.50;;;10.80;99.90;;;;;;6341619;22;20029;-85
2022/07/28 02:26:36;;;;;;;0.75;0.50;;;10.60;99.90;;;;;;6341663;22;20035;-85
2022/07/28 02:29:05;;;;;;;2.47;0.40;;;10.40;99.90;;;;;;6341670;22;20321;-85
2022/07/28 02:31:39;;;;;;;0.50;0.30;;;10.70;99.90;;;;;;6341648;22;20440;-85
2022/07/28 02:34:06;;;;;;;1.48;0.45;;;10.70;99.90;;;;;;6341659;22;20067;-85
2022/07/28 02:36:44;;;;;;;1.35;0.47;;;10.80;99.90;;;;;;6341591;22;20020;-85
2022/07/28 02:39:25;;;;;;;0.70;0.40;;;10.90;99.90;;;;;;6315354;22;20021;-85
2022/07/28 02:41:57;;;;;;;1.05;0.60;;;11.30;99.90;;;;;;6335905;22;20330;-85
2022/07/28 02:44:29;;;;;;;1.42;0.50;;;11.40;99.90;;;;;;6336204;22;20093;-85
2022/07/28 02:46:57;;;;;;;0.60;0.40;;;11.10;99.90;;;;;;6336313;22;20376;-85
2022/07/28 02:49:28;;;;;;;0.30;0.30;;;11.30;99.90;;;;;;6337534;22;20536;-85
2022/07/28 02:51:57;;;;;;;0.43;0.40;;;11.20;99.90;;;;;;6337889;22;20015;-85
2022/07/28 02:54:26;;;;;;;0.73;0.40;;;11.30;99.90;;;;;;6337974;22;20061;-85
2022/07/28 02:56:53;;;;;;;0.30;0.30;;;11.40;99.90;;;;;;6338051;22;20073;-86
2022/07/28 02:59:20;;;;;;;0.73;0.40;;;11.40;99.90;;;;;;6336328;22;20327;-85
2022/07/28 03:01:47;;;;;;;0.55;0.30;;;11.50;99.90;;;;;;6335979;22;20422;-86
2022/07/28 03:04:14;;;;;;;0.30;0.30;;;11.80;99.90;;;;;;6336576;22;20095;-85
2022/07/28 03:06:41;;;;;;;1.75;0.30;;;11.60;99.90;;;;;;6336086;22;20036;-86
2022/07/28 03:09:12;;;;;;;0.40;0.40;;;11.60;99.90;;;;;;6336105;22;20078;-86
2022/07/28 03:11:58;;;;;;;0.85;0.40;;;11.70;99.90;;;;;;6336060;22;20069;-86
2022/07/28 03:14:24;;;;;;;0.52;0.43;;;11.70;99.90;;;;;;6335319;22;20050;-86
2022/07/28 03:16:50;;;;;;;0.40;0.30;;;11.70;99.90;;;;;;6336690;22;20026;-86
2022/07/28 03:19:16;;;;;;;0.70;0.50;;;11.60;99.90;;;;;;6338144;22;20015;-86
2022/07/28 03:21:41;;;;;;;0.85;0.60;;;11.70;99.90;;;;;;6336113;22;20014;-86
2022/07/28 03:24:09;;;;;;;0.30;0.30;;;11.80;99.90;;;;;;6336854;22;20019;-85
2022/07/28 03:26:50;;;;;;;0.70;0.40;;;11.70;99.90;;;;;;6336340;22;20019;-86
2022/07/28 03:29:19;;;;;;;0.35;0.32;;;11.80;99.90;;;;;;6334909;22;20023;-86
2022/07/28 03:31:47;;;;;;;1.27;0.30;;;11.90;99.90;;;;;;6309731;22;20070;-86
2022/07/28 03:34:18;;;;;;;0.60;0.50;;;11.80;99.90;;;;;;6310417;22;20023;-86
2022/07/28 03:36:54;;;;;;;1.08;0.30;;;11.90;99.90;;;;;;6338012;22;20014;-85
2022/07/28 03:39:23;;;;;;;1.13;0.40;;;12.00;99.90;;;;;;6337251;22;20023;-85
2022/07/28 03:41:50;;;;;;;0.50;0.40;;;12.00;99.90;;;;;;6335918;22;20026;-85
2022/07/28 03:44:16;;;;;;;0.30;0.30;;;12.00;99.90;;;;;;6336064;22;20049;-85
2022/07/28 03:46:44;;;;;;;0.82;0.45;;;12.10;99.90;;;;;;6310276;22;20011;-85
2022/07/28 03:49:10;;;;;;;1.52;0.50;;;12.00;99.90;;;;;;6336155;22;20065;-85
2022/07/28 03:51:35;;;;;;;0.63;0.30;;;11.70;99.90;;;;;;6336281;22;20404;-88
2022/07/28 03:54:01;;;;;;;0.90;0.50;;;12.20;99.90;;;;;;6337750;22;20047;-86
2022/07/28 03:56:27;;;;;;;0.65;0.43;;;12.00;99.90;;;;;;6336119;22;20038;-87
2022/07/28 03:58:53;;;;;;;0.70;0.45;;;12.00;99.90;;;;;;6335867;22;20098;-85
2022/07/28 04:01:18;;;;;;;0.30;0.30;;;12.10;99.90;;;;;;6336503;22;20095;-85
2022/07/28 04:03:44;;;;;;;1.92;0.47;;;11.80;99.90;;;;;;6339912;22;20019;-86
2022/07/28 04:06:14;;;;;;;0.68;0.50;;;11.90;99.90;;;;;;6337489;22;20015;-85
2022/07/28 04:08:40;;;;;;;0.93;0.40;;;11.90;99.90;;;;;;6339777;22;20044;-85
2022/07/28 04:11:06;;;;;;;0.70;0.50;;;11.90;99.90;;;;;;6337611;22;20023;-85
2022/07/28 04:13:35;;;;;;;0.90;0.60;;;11.90;99.90;;;;;;6337213;22;20015;-86
2022/07/28 04:16:01;;;;;;;0.60;0.50;;;12.30;99.90;;;;;;6339365;22;20079;-86
2022/07/28 04:18:27;;;;;;;0.52;0.40;;;11.90;99.90;;;;;;6337842;22;20014;-86
2022/07/28 04:20:54;;;;;;;1.70;0.40;;;11.80;99.90;;;;;;6311892;22;20337;-86
2022/07/28 04:23:21;;;;;;;1.08;0.60;;;11.80;99.90;;;;;;6337508;22;20015;-85
2022/07/28 04:25:48;;;;;;;0.68;0.40;;;12.40;99.90;;;;;;6307674;22;20030;-86
2022/07/28 04:28:14;;;;;;;1.52;0.50;;;11.80;99.90;;;;;;6306186;22;20023;-85
2022/07/28 04:30:40;;;;;;;2.47;0.60;;;11.60;99.90;;;;;;6306868;22;20022;-85
2022/07/28 04:33:06;;;;;;;0.88;0.60;;;11.20;99.90;;;;;;6306510;22;20068;-85
2022/07/28 04:35:33;;;;;;;1.38;0.60;;;11.60;99.90;;;;;;6306283;22;20052;-85
2022/07/28 04:38:00;;;;;;;1.38;0.50;;;11.60;99.90;;;;;;6305762;22;20088;-87
2022/07/28 04:40:26;;;;;;;1.13;0.50;;;11.70;99.90;;;;;;6306505;22;20019;-86
2022/07/28 04:42:53;;;;;;;1.13;0.63;;;11.30;99.90;;;;;;6305969;22;20015;-86
2022/07/28 04:45:19;;;;;;;0.65;0.60;;;11.60;99.90;;;;;;6308170;22;20021;-87
2022/07/28 04:47:45;;;;;;;0.40;0.30;;;11.70;99.90;;;;;;6307813;22;20022;-88
2022/07/28 04:50:14;;;;;;;0.80;0.60;;;11.80;99.90;;;;;;6306378;22;20020;-89
2022/07/28 04:52:41;;;;;;;1.10;0.60;;;12.10;99.90;;;;;;6306254;22;20098;-89
2022/07/28 04:55:07;;;;;;;1.63;0.63;;;11.50;99.90;;;;;;6307481;22;20450;-89
2022/07/28 04:57:34;;;;;;;0.57;0.50;;;11.60;99.90;;;;;;6306414;22;20019;-88
2022/07/28 05:00:00;;;;;;;0.98;0.52;;;12.00;99.90;;;;;;6306022;22;20015;-89
2022/07/28 05:02:26;;;;;;;1.77;0.45;;;11.70;99.90;;;;;;6306336;22;20015;-88
2022/07/28 05:04:52;;;;;;;0.90;0.47;;;11.90;99.90;;;;;;6305758;22;20072;-89
2022/07/28 05:07:18;;;;;;;1.30;0.50;;;11.80;99.90;;;;;;6306133;22;20023;-88
2022/07/28 05:09:43;;;;;;;0.60;0.55;;;11.80;99.90;;;;;;6305646;22;20025;-87
2022/07/28 05:12:09;;;;;;;0.82;0.50;;;12.30;99.90;;;;;;6307214;22;20015;-88
2022/07/28 05:14:35;;;;;;;1.45;0.65;;;12.00;99.90;;;;;;6305813;22;20350;-88
2022/07/28 05:17:01;;;;;;;0.82;0.50;;;11.70;99.90;;;;;;6306123;22;20027;-89
2022/07/28 05:19:27;;;;;;;1.15;0.50;;;12.70;99.90;;;;;;6279943;22;20016;-86
2022/07/28 05:21:53;;;;;;;1.73;0.50;;;11.60;99.90;;;;;;6305971;22;20327;-86
2022/07/28 05:24:19;;;;;;;1.55;0.40;;;11.80;99.90;;;;;;6307667;22;20015;-87
2022/07/28 05:26:44;;;;;;;1.70;0.40;;;12.00;99.90;;;;;;6306186;22;20038;-87
2022/07/28 05:29:10;;;;;;;0.60;0.50;;;12.00;99.90;;;;;;6307467;22;20015;-88
2022/07/28 05:31:36;;;;;;;0.60;0.40;;;12.10;99.90;;;;;;6305700;22;20015;-89
2022/07/28 05:34:02;;;;;;;1.00;0.40;;;12.20;99.90;;;;;;6305186;22;20106;-88
2022/07/28 05:36:27;;;;;;;1.70;0.40;;;12.30;99.90;;;;;;6280015;22;20092;-87
2022/07/28 05:38:53;;;;;;;1.10;0.50;;;12.30;99.90;;;;;;6305291;22;20323;-89
2022/07/28 05:41:19;;;;;;;0.52;0.38;;;12.70;99.90;;;;;;6308242;22;20015;-88
2022/07/28 05:43:45;;;;;;;0.82;0.40;;;12.50;99.90;;;;;;6338572;22;20021;-89
2022/07/28 05:46:10;;;;;;;0.50;0.35;;;12.60;99.90;;;;;;6284803;22;20406;-87
2022/07/28 05:48:36;;;;;;;0.65;0.40;;;12.80;99.90;;;;;;6337623;22;20014;-88
2022/07/28 05:51:02;;;;;;;0.60;0.40;;;12.70;99.90;;;;;;6310559;22;20038;-89
2022/07/28 05:53:28;;;;;;;0.50;0.40;;;12.80;99.90;;;;;;6310527;22;20448;-88
2022/07/28 05:55:53;;;;;;;1.70;0.40;;;12.90;99.90;;;;;;6310640;22;20139;-89
2022/07/28 05:58:23;;;;;;;0.50;0.38;;;13.00;99.90;;;;;;6310250;22;20023;-89
2022/07/28 06:00:49;;;;;;;0.95;0.30;;;13.10;99.90;;;;;;6311015;22;20441;-90
2022/07/28 06:03:15;;;;;;;0.30;0.20;;;13.20;99.90;;;;;;6284686;22;20094;-88
2022/07/28 06:05:41;;;;;;;0.55;0.28;;;13.20;99.90;;;;;;6337967;22;20058;-88
2022/07/28 06:08:07;;;;;;;0.77;0.30;;;13.30;99.90;;;;;;6311193;22;20019;-89
2022/07/28 06:13:20;;;;;;;1.60;0.30;;;13.40;99.90;;;;;;6337833;22;20053;-86
2022/07/28 06:15:47;;;;;;;1.02;0.30;;;13.60;99.90;;;;;;6310462;22;20015;-90
2022/07/28 06:18:12;;;;;;;0.52;0.25;;;13.60;99.90;;;;;;6310736;22;20030;-89
2022/07/28 06:20:39;;;;;;;0.40;0.20;;;13.60;99.90;;;;;;6310625;22;20349;-91
2022/07/28 06:23:04;;;;;;;1.33;0.32;;;13.70;99.90;;;;;;6310121;22;20010;-89
2022/07/28 06:25:30;;;;;;;1.67;0.60;;;13.80;99.90;;;;;;6337717;22;20023;-91
2022/07/28 06:27:58;;;;;;;0.63;0.30;;;13.80;99.90;;;;;;6310203;22;20068;-89
2022/07/28 06:30:25;;;;;;;1.10;0.20;;;14.60;99.90;;;;;;6310176;22;20014;-89
2022/07/28 06:32:51;;;;;;;0.45;0.20;;;13.90;99.90;;;;;;6338089;22;20022;-90
2022/07/28 06:35:23;;;;;;;0.45;0.20;;;14.40;99.90;;;;;;6338595;22;20021;-92
2022/07/28 06:37:53;;;;;;;0.55;0.40;;;13.90;99.90;;;;;;6314344;22;20019;-92
2022/07/28 06:40:27;;;;;;;1.10;0.30;;;13.90;99.90;;;;;;6338105;22;20022;-93
2022/07/28 06:42:53;;;;;;;1.02;0.40;;;14.00;99.90;;;;;;6339687;22;20023;-93
2022/07/28 06:45:19;;;;;;;0.40;0.40;;;14.00;99.90;;;;;;6311054;22;20349;-90
2022/07/28 06:47:49;;;;;;;1.10;0.43;;;13.90;99.90;;;;;;6338342;22;20011;-91
2022/07/28 06:50:16;;;;;;;1.77;0.40;;;14.00;99.90;;;;;;6310606;22;20069;-89
2022/07/28 06:52:42;;;;;;;0.60;0.45;;;13.90;99.90;;;;;;6310273;22;20018;-88
2022/07/28 06:55:08;;;;;;;2.42;0.52;;;13.90;99.90;;;;;;6310441;22;20349;-92
2022/07/28 06:57:33;;;;;;;1.20;0.50;;;13.90;99.90;;;;;;6309995;22;20441;-92
2022/07/28 07:00:02;;;;;;;1.33;0.30;;;13.90;99.90;;;;;;6309799;22;20029;-89
2022/07/28 07:02:27;;;;;;;0.73;0.40;;;13.90;99.90;;;;;;6337791;22;20010;-88
2022/07/28 07:04:53;;;;;;;0.75;0.40;;;13.90;99.90;;;;;;6310592;22;20661;-87
2022/07/28 07:07:21;;;;;;;0.75;0.40;;;14.10;99.90;;;;;;6284211;22;20044;-89
2022/07/28 07:09:47;;;;;;;0.50;0.40;;;14.10;99.90;;;;;;6310048;22;20053;-88
2022/07/28 07:12:15;;;;;;;0.63;0.30;;;14.10;99.90;;;;;;6309958;22;20015;-89
2022/07/28 07:14:41;;;;;;;1.27;0.30;;;14.40;99.90;;;;;;6309780;22;20513;-88
2022/07/28 07:17:07;;;;;;;0.95;0.38;;;14.30;99.90;;;;;;6337955;22;20074;-89
2022/07/28 07:19:35;;;;;;;0.85;0.30;;;14.30;99.90;;;;;;6338760;22;20015;-91
2022/07/28 07:22:20;;;;;;;0.93;0.40;;;14.70;99.90;;;;;;6337207;22;20021;-89
2022/07/28 07:24:49;;;;;;;0.80;0.30;;;14.50;99.90;;;;;;6309380;22;20026;-91
2022/07/28 07:27:15;;;;;;;2.35;0.38;;;14.60;99.90;;;;;;6337999;22;20412;-92
2022/07/28 07:29:41;;;;;;;0.60;0.35;;;14.70;99.90;;;;;;6310586;22;20105;-91
2022/07/28 07:32:09;;;;;;;0.40;0.30;;;14.80;99.90;;;;;;6310438;22;20352;-92
2022/07/28 07:34:38;;;;;;;0.30;0.25;;;14.80;99.90;;;;;;6310069;22;20117;-91
2022/07/28 07:37:13;;;;;;;1.35;0.32;;;14.80;99.90;;;;;;6311686;22;20014;-91
2022/07/28 07:39:40;;;;;;;0.60;0.20;;;15.00;99.90;;;;;;6314207;22;20336;-90
2022/07/28 07:42:06;;;;;;;0.40;0.20;;;15.10;99.90;;;;;;6305996;22;20430;-86
2022/07/28 07:44:35;;;;;;;0.75;0.20;;;15.30;99.90;;;;;;6306737;22;20023;-87
2022/07/28 07:47:07;;;;;;;0.30;0.30;;;15.50;99.90;;;;;;6306625;22;20457;-85
2022/07/28 07:49:38;;;;;;;1.05;0.30;;;15.40;99.90;;;;;;6307659;22;20019;-88
2022/07/28 07:52:06;;;;;;;0.65;0.20;;;15.40;99.90;;;;;;6304196;22;20015;-87
2022/07/28 07:54:44;;;;;;;0.60;0.20;;;15.50;99.90;;;;;;6308702;22;20023;-85
2022/07/28 07:57:16;;;;;;;1.85;0.30;;;15.60;99.90;;;;;;6308430;22;20456;-85
2022/07/28 07:59:45;;;;;;;0.63;0.20;;;15.50;99.90;;;;;;6281021;22;20023;-86
2022/07/28 08:02:10;;;;;;;0.63;0.20;;;15.80;99.90;;;;;;6254522;22;20479;-87
2022/07/28 08:04:36;;;;;;;0.75;0.30;;;15.80;99.90;;;;;;6280820;22;20047;-85
2022/07/28 08:07:02;;;;;;;0.20;0.20;;;15.90;99.90;;;;;;6280438;22;20137;-85
2022/07/28 08:09:28;;;;;;;0.75;0.30;;;16.00;99.90;;;;;;6308487;22;20015;-86
2022/07/28 08:11:53;;;;;;;0.63;0.30;;;16.10;99.90;;;;;;6280447;22;20003;-86
2022/07/28 08:14:22;;;;;;;0.43;0.30;;;16.20;99.90;;;;;;6280577;22;20023;-89
2022/07/28 08:16:48;;;;;;;0.60;0.30;;;16.30;99.90;;;;;;6307973;22;20334;-85
2022/07/28 08:19:13;;;;;;;1.10;0.50;;;16.40;99.90;;;;;;6308196;22;20091;-85
2022/07/28 08:21:42;;;;;;;0.60;0.20;;;16.50;99.90;;;;;;6280711;22;20019;-85
2022/07/28 08:24:08;;;;;;;1.60;0.50;;;16.50;99.90;;;;;;6254979;22;20015;-86
2022/07/28 08:26:33;;;;;;;2.30;0.30;;;16.60;99.90;;;;;;6280567;22;20016;-86
2022/07/28 08:28:59;;;;;;;0.55;0.30;;;16.80;99.90;;;;;;6307677;22;20426;-85
2022/07/28 08:31:25;;;;;;;0.73;0.22;;;16.70;99.90;;;;;;6280283;22;20054;-86
2022/07/28 08:33:51;;;;;;;2.05;0.20;;;16.80;99.90;;;;;;6254973;22;20016;-86
2022/07/28 08:36:17;;;;;;;2.20;0.28;;;16.80;99.90;;;;;;6280726;22;20346;-85
2022/07/28 08:38:43;;;;;;;0.50;0.20;;;16.90;99.90;;;;;;6308250;22;20011;-85
2022/07/28 08:41:42;;;;;;;2.55;0.28;;;16.90;99.90;;;;;;6280652;22;20102;-87
2022/07/28 08:44:33;;;;;;;;;;;;;;;;;;;;;
2022/07/28 08:47:00;;;;;;;0.20;0.20;;;17.10;99.90;;;;;;6178405;22;20023;-87
2022/07/28 08:49:27;;;;;;;0.20;0.20;;;17.20;99.90;;;;;;6254645;22;20008;-86
2022/07/28 08:51:55;;;;;;;0.30;0.20;;;17.40;99.90;;;;;;6280517;22;20070;-86
2022/07/28 08:54:28;;;;;;;1.02;0.13;;;17.60;99.90;;;;;;6307882;22;20430;-86
2022/07/28 08:56:56;;;;;;;1.08;0.57;;;17.90;99.90;;;;;;6279992;22;20026;-86
2022/07/28 08:59:25;;;;;;;1.58;0.25;;;18.10;99.90;;;;;;6280487;22;20346;-87
2022/07/28 09:02:24;;;;;;;0.13;0.10;;;18.20;99.90;;;;;;6279734;22;20015;-86
2022/07/28 09:10:23;;;;;;;0.35;0.20;;;18.80;99.90;;;;;;6291473;22;20019;-87
2022/07/28 09:17:00;;;;;;;0.95;0.30;;;19.50;99.90;;;;;;6307734;22;20385;-86
2022/07/28 09:19:36;;;;;;;0.68;0.30;;;19.70;99.90;;;;;;6307321;22;20506;-86
2022/07/28 09:22:03;;;;;;;0.32;0.20;;;19.90;99.90;;;;;;6254494;22;20497;-85
2022/07/28 09:24:38;;;;;;;0.30;0.10;;;20.10;99.90;;;;;;6280696;22;20023;-84
2022/07/28 09:37:46;;;;;;;2.53;0.13;;;19.90;99.90;;;;;;6126016;23;20055;-85
2022/07/28 09:40:13;;;;;;;0.10;0.10;;;20.00;99.90;;;;;;6127825;23;20434;-85
2022/07/28 09:42:48;;;;;;;0.80;0.13;;;20.20;99.90;;;;;;6128416;23;20531;-85
2022/07/28 09:45:14;;;;;;;;;;;20.40;99.90;;;;;;6129057;23;20021;-85
2022/07/28 09:47:40;;;;;;;1.63;0.17;;;20.60;99.90;;;;;;6128371;23;19924;-85
2022/07/28 09:50:20;;;;;;;1.95;0.85;;;20.70;99.90;;;;;;6128287;23;20025;-85
2022/07/28 09:52:46;;;;;;;0.30;0.10;;;21.00;99.00;;;;;;6128402;23;20053;-85
2022/07/28 09:55:17;;;;;;;1.60;0.13;;;21.30;99.40;;;;;;6153103;23;20515;-85
2022/07/28 09:57:43;;;;;;;1.63;0.20;;;21.40;99.40;;;;;;6128049;23;20045;-86
2022/07/28 10:00:23;;;;;;;1.08;0.20;;;21.30;97.60;;;;;;6127250;23;20041;-85
2022/07/28 10:02:54;;;;;;;0.90;0.20;;;21.20;97.70;;;;;;6127891;23;20096;-86
2022/07/28 10:05:37;;;;;;;1.55;0.10;;;21.00;96.70;;;;;;6128374;23;20025;-85
2022/07/28 10:08:06;;;;;;;0.17;0.10;;;20.90;97.00;;;;;;6128177;23;20056;-85
2022/07/28 10:10:35;;;;;;;0.32;0.10;;;20.80;95.40;;;;;;6127903;23;20077;-85
2022/07/28 10:13:05;;;;;;;0.20;0.20;;;20.80;97.00;;;;;;6127094;23;20108;-85
2022/07/28 10:18:17;;;;;;;0.82;0.20;;;20.60;98.10;;;;;;6306751;22;20050;-85
2022/07/28 10:20:46;;;;;;;1.70;0.20;;;20.70;96.10;;;;;;6253439;22;20015;-90
2022/07/28 10:23:14;;;;;;;0.65;0.15;;;20.70;97.00;;;;;;6279806;22;20074;-88
2022/07/28 10:25:43;;;;;;;1.45;0.20;;;20.70;96.10;;;;;;6279758;22;20093;-85
2022/07/28 10:28:10;;;;;;;1.55;0.17;;;20.50;96.50;;;;;;6307435;22;20019;-85
2022/07/28 10:30:39;;;;;;;0.10;0.10;;;20.70;97.50;;;;;;6279720;22;20090;-85
2022/07/28 10:33:12;;;;;;;0.30;0.20;;;20.60;97.30;;;;;;6279996;22;20019;-85
2022/07/28 10:35:39;;;;;;;1.00;0.20;;;20.60;97.00;;;;;;6279547;22;20011;-85
2022/07/28 10:38:10;;;;;;;2.33;0.20;;;20.60;97.60;;;;;;6254742;22;20060;-85
2022/07/28 10:40:41;;;;;;;1.25;0.10;;;20.60;97.50;;;;;;6306673;22;20396;-85
2022/07/28 10:43:07;;;;;;;0.57;0.20;;;20.70;98.10;;;;;;6279572;22;20094;-85
2022/07/28 10:45:34;;;;;;;0.20;0.10;;;20.70;97.20;;;;;;6280049;22;20023;-84
2022/07/28 10:48:02;;;;;;;0.32;0.20;;;20.80;97.20;;;;;;6279497;22;20086;-86
2022/07/28 10:50:28;;;;;;;0.60;0.10;;;20.90;96.40;;;;;;6307151;22;20011;-86
2022/07/28 10:52:55;;;;;;;0.17;0.10;;;21.00;97.70;;;;;;6307147;22;20104;-85
2022/07/28 10:55:47;;;;;;;1.20;0.20;;;21.10;97.70;;;;;;6306846;22;20064;-85
2022/07/28 10:58:16;;;;;;;0.63;0.17;;;21.20;96.70;;;;;;6307255;22;20362;-84
2022/07/28 11:00:46;;;;;;;0.93;0.20;;;21.20;98.00;;;;;;6307259;22;20015;-85
2022/07/28 11:03:34;;;;;;;0.52;0.20;;;21.30;96.00;;;;;;6279680;22;20015;-86
2022/07/28 11:39:47;;;;;;;1.33;0.20;;;20.50;95.60;;;;;;6278192;22;20034;-86
2022/07/28 12:51:03;;;;;;;;;;;;;;;;;;;;;
2022/07/28 12:54:13;;;;;;;0.90;0.20;;;21.30;95.10;;;;;;6306589;22;20345;-86
2022/07/28 13:27:27;;;;;;;;;;;;;;;;;;;;;
2022/07/28 13:33:27;;;;;;;;;;;;;;;;;;;;;
2022/07/28 13:36:30;;;;;;;0.90;0.20;;;21.60;93.00;;;;;;6187045;23;20363;-86
2022/07/28 13:39:09;;;;;;;1.27;0.20;;;21.50;93.00;;;;;;6212528;22;20032;-86
2022/07/28 13:41:41;;;;;;;0.25;0.15;;;21.60;93.80;;;;;;6187644;23;20063;-86
2022/07/28 13:44:25;;;;;;;0.98;0.20;;;21.70;93.30;;;;;;6186117;23;20017;-87
2022/07/28 13:47:28;;;;;;;0.98;0.20;;;21.80;93.30;;;;;;6186623;23;20025;-86
2022/07/28 13:50:10;;;;;;;0.30;0.20;;;21.60;92.00;;;;;;6186981;23;20023;-87
2022/07/28 14:07:23;;;;;;;0.13;0.10;;;21.30;92.30;;;;;;5923361;24;20025;-84
2022/07/28 14:10:34;;;;;;;2.47;0.20;;;21.10;93.00;;;;;;5924601;24;20028;-85
2022/07/28 14:13:16;;;;;;;2.67;0.25;;;20.90;92.10;;;;;;5923819;24;20076;-85
2022/07/28 14:15:58;;;;;;;0.75;0.20;;;21.20;92.30;;;;;;5923377;24;20104;-85
2022/07/28 14:19:04;;;;;;;1.13;0.20;;;21.50;92.80;;;;;;5924145;24;20029;-84
2022/07/28 14:21:44;;;;;;;0.47;0.20;;;21.80;92.40;;;;;;5924570;24;20373;-84
2022/07/28 14:24:52;;;;;;;1.52;0.10;;;21.70;92.30;;;;;;5924327;24;20517;-85
2022/07/28 14:27:42;;;;;;;0.20;0.10;;;21.50;91.70;;;;;;5924385;23;20064;-85
2022/07/28 14:34:09;;;;;;;0.38;0.20;;;21.30;92.10;;;;;;6077653;22;20336;-86
2022/07/28 14:36:34;;;;;;;1.13;0.20;;;21.70;91.70;;;;;;6307059;22;20019;-84
2022/07/28 14:39:03;;;;;;;1.58;0.10;;;21.60;92.60;;;;;;6279254;22;20071;-84
2022/07/28 14:41:28;;;;;;;0.25;0.10;;;21.70;92.30;;;;;;6305523;22;20012;-84
2022/07/28 14:44:17;;;;;;;0.85;0.20;;;21.80;92.20;;;;;;6279519;22;20453;-83
2022/07/28 14:46:51;;;;;;;2.03;0.20;;;21.90;91.50;;;;;;6306423;22;20018;-85
2022/07/28 14:49:20;;;;;;;1.50;0.15;;;21.80;92.00;;;;;;6279281;22;20022;-85
2022/07/28 14:52:28;;;;;;;;;;;;;;;;;;;;;
2022/07/28 15:07:20;;;;;;;0.57;0.17;;;22.20;90.60;;;;;;5979875;24;20036;-85
2022/07/28 15:49:40;;;;;;;0.95;0.10;;;22.50;91.30;;;;;;5167630;27;20450;-86
2022/07/28 15:52:14;;;;;;;1.48;0.17;;;22.50;90.90;;;;;;5124439;28;20055;-85
2022/07/28 15:54:40;;;;;;;0.85;0.20;;;22.40;90.90;;;;;;5108912;28;20052;-84
2022/07/28 15:57:07;;;;;;;0.40;0.20;;;22.30;91.20;;;;;;5108725;28;20043;-85
2022/07/28 15:59:33;;;;;;;1.25;0.20;;;22.20;91.20;;;;;;5109072;28;20408;-86
2022/07/28 16:02:07;;;;;;;0.85;0.28;;;21.90;91.20;;;;;;5109251;28;20047;-85
2022/07/28 16:04:33;;;;;;;0.73;0.20;;;21.80;91.60;;;;;;5112077;28;20040;-86
2022/07/28 16:09:44;;;;;;;1.17;0.20;;;21.30;91.50;;;;;;5123791;28;20493;-85
2022/07/28 16:12:11;;;;;;;1.60;0.20;;;21.20;92.10;;;;;;5109968;28;20109;-87
2022/07/28 16:14:37;;;;;;;1.33;0.30;;;21.20;92.30;;;;;;5123194;28;20048;-88
2022/07/28 16:17:36;;;;;;;0.75;0.22;;;21.40;92.40;;;;;;5107776;28;20052;-88
2022/07/28 16:20:05;;;;;;;0.40;0.10;;;21.50;92.10;;;;;;5115782;28;20078;-84
2022/07/28 16:22:39;;;;;;;0.55;0.22;;;21.50;92.60;;;;;;5129100;28;20370;-87
2022/07/28 16:25:18;;;;;;;0.30;0.10;;;21.30;91.80;;;;;;5128770;28;20056;-85
2022/07/28 16:27:57;;;;;;;0.38;0.28;;;21.40;91.90;;;;;;5129880;27;20045;-85
2022/07/28 16:30:43;;;;;;;0.40;0.10;;;21.30;91.80;;;;;;5128629;28;20129;-86
2022/07/28 16:33:09;;;;;;;0.63;0.20;;;21.30;91.80;;;;;;5128967;27;20063;-84
2022/07/28 16:35:43;;;;;;;1.90;0.20;;;21.30;92.50;;;;;;5126232;28;20413;-84
2022/07/28 16:38:10;;;;;;;0.50;0.10;;;21.30;92.40;;;;;;5128307;28;20147;-84
2022/07/28 16:41:12;;;;;;;2.65;0.40;;;21.20;92.00;;;;;;5100274;22;20069;-86
2022/07/28 16:49:03;;;;;;;0.60;0.20;;;21.00;92.40;;;;;;5078282;22;20053;-88
2022/07/28 16:58:29;;;;;;;1.08;0.28;;;20.70;93.10;;;;;;4953049;29;20091;-87
2022/07/28 17:04:35;;;;;;;0.35;0.20;;;20.20;92.60;;;;;;4956916;29;20117;-85
2022/07/28 17:07:07;;;;;;;0.25;0.10;;;20.00;93.00;;;;;;4939122;29;20059;-85
2022/07/28 17:09:37;;;;;;;0.85;0.15;;;19.90;93.60;;;;;;4939236;29;20516;-85
2022/07/28 17:12:07;;;;;;;0.22;0.10;;;19.90;93.70;;;;;;4939897;29;20089;-86
2022/07/28 17:18:52;;;;;;;1.45;0.20;;;19.60;93.40;;;;;;4937963;29;20059;-86
2022/07/28 17:21:25;;;;;;;0.75;0.30;;;19.70;94.00;;;;;;4937707;29;20476;-85
2022/07/28 17:28:00;;;;;;;0.32;0.10;;;19.30;94.30;;;;;;4950987;29;20107;-86
2022/07/28 17:30:56;;;;;;;1.05;0.30;;;19.10;94.30;;;;;;5065306;23;20189;-86